Time;durP1;ratioP1;P1;durP2;ratioP2;P2;SDS_P1;SDS_P2;PMS_P1;PMS_P2;Temp;Humidity;BMP_temperature;BMP_pressure;BME280_temperature;BME280_humidity;BME280_pressure;Samples;Min_cycle;Max_cycle;Signal;HPM_P1;HPM_P2
2022/10/20 00:00:54;;;;;;;13.15;4.53;;;;;;;;;;5101957;28;20052;-81
2022/10/20 00:03:21;;;;;;;11.75;4.95;;;;;;;;;;5109142;28;20506;-81
2022/10/20 00:05:47;;;;;;;8.63;4.60;;;;;;;;;;5093913;28;20075;-80
2022/10/20 00:08:13;;;;;;;11.32;4.50;;;;;;;;;;5097855;28;20059;-80
2022/10/20 00:10:40;;;;;;;15.43;5.00;;;;;;;;;;5099774;27;20059;-82
2022/10/20 00:13:06;;;;;;;8.43;4.47;;;;;;;;;;5109610;28;20147;-84
2022/10/20 00:15:32;;;;;;;8.13;4.65;;;;;;;;;;5101016;28;20052;-82
2022/10/20 00:17:59;;;;;;;11.63;4.72;;;;;;;;;;5090917;28;20052;-80
2022/10/20 00:20:25;;;;;;;9.20;4.85;;;;;;;;;;5093548;27;20055;-82
2022/10/20 00:22:51;;;;;;;10.15;4.95;;;;;;;;;;5093686;28;20538;-80
2022/10/20 00:25:17;;;;;;;12.65;4.97;;;;;;;;;;5108009;27;20060;-80
2022/10/20 00:27:44;;;;;;;8.45;4.57;;;;;;;;;;5106126;27;20057;-81
2022/10/20 00:30:10;;;;;;;11.82;5.40;;;;;;;;;;5105188;28;20052;-81
2022/10/20 00:32:36;;;;;;;11.30;5.28;;;;;;;;;;5095845;27;20082;-82
2022/10/20 00:35:03;;;;;;;8.27;4.38;;;;;;;;;;5096048;28;20107;-83
2022/10/20 00:37:30;;;;;;;10.02;4.68;;;;;;;;;;5092659;27;20056;-83
2022/10/20 00:39:56;;;;;;;11.20;4.78;;;;;;;;;;5097739;27;20048;-80
2022/10/20 00:42:22;;;;;;;9.00;4.22;;;;;;;;;;5108234;28;20055;-82
2022/10/20 00:44:48;;;;;;;11.95;4.82;;;;;;;;;;5091599;28;20052;-81
2022/10/20 00:47:16;;;;;;;11.90;5.50;;;;;;;;;;5105753;27;20139;-81
2022/10/20 00:49:43;;;;;;;11.85;4.95;;;;;;;;;;5098053;27;20056;-80
2022/10/20 00:52:10;;;;;;;9.57;4.90;;;;;;;;;;5104874;27;20067;-80
2022/10/20 00:54:36;;;;;;;13.35;5.10;;;;;;;;;;5110685;28;20542;-79
2022/10/20 00:57:03;;;;;;;9.80;5.22;;;;;;;;;;5101963;28;20052;-80
2022/10/20 00:59:32;;;;;;;10.68;5.35;;;;;;;;;;5103564;27;20056;-80
2022/10/20 01:01:59;;;;;;;8.88;4.75;;;;;;;;;;5109558;27;20526;-79
2022/10/20 01:04:27;;;;;;;9.95;5.15;;;;;;;;;;5109434;27;20056;-80
2022/10/20 01:06:53;;;;;;;11.10;5.35;;;;;;;;;;5107518;28;20056;-79
2022/10/20 01:09:20;;;;;;;10.32;4.72;;;;;;;;;;5110712;27;20052;-79
2022/10/20 01:11:53;;;;;;;17.13;5.68;;;;;;;;;;5097854;28;20055;-79
2022/10/20 01:14:32;;;;;;;13.00;5.28;;;;;;;;;;5098975;27;20056;-79
2022/10/20 01:17:01;;;;;;;10.15;5.43;;;;;;;;;;5093268;27;20071;-79
2022/10/20 01:19:38;;;;;;;15.45;5.68;;;;;;;;;;5097711;28;20056;-79
2022/10/20 01:22:12;;;;;;;13.18;5.18;;;;;;;;;;5091370;28;20053;-80
2022/10/20 01:24:48;;;;;;;11.70;5.30;;;;;;;;;;5108264;27;20063;-80
2022/10/20 01:27:20;;;;;;;12.70;5.90;;;;;;;;;;5109664;28;20052;-80
2022/10/20 01:29:50;;;;;;;10.38;5.43;;;;;;;;;;5105671;28;20134;-79
2022/10/20 01:32:19;;;;;;;12.07;5.63;;;;;;;;;;5099057;27;20037;-80
2022/10/20 01:34:50;;;;;;;13.88;5.82;;;;;;;;;;5123236;27;20508;-80
2022/10/20 01:37:26;;;;;;;12.95;6.35;;;;;;;;;;5099258;28;20083;-80
2022/10/20 01:40:17;;;;;;;13.93;6.05;;;;;;;;;;5102500;28;20056;-79
2022/10/20 01:42:45;;;;;;;12.65;5.38;;;;;;;;;;5098993;27;20059;-79
2022/10/20 01:45:13;;;;;;;11.80;6.45;;;;;;;;;;5105331;28;20066;-79
2022/10/20 01:47:40;;;;;;;11.15;5.47;;;;;;;;;;5102068;28;20056;-80
2022/10/20 01:50:07;;;;;;;12.02;6.05;;;;;;;;;;5098351;27;20887;-80
2022/10/20 01:52:33;;;;;;;12.55;6.00;;;;;;;;;;5104900;28;20060;-80
2022/10/20 01:55:00;;;;;;;13.35;5.97;;;;;;;;;;5103961;27;20056;-80
2022/10/20 01:57:42;;;;;;;13.02;5.93;;;;;;;;;;5101486;27;20052;-79
2022/10/20 02:00:09;;;;;;;13.68;6.40;;;;;;;;;;5107702;27;20648;-81
2022/10/20 02:02:54;;;;;;;16.63;6.88;;;;;;;;;;5113194;28;20056;-84
2022/10/20 02:05:21;;;;;;;12.13;5.93;;;;;;;;;;5107720;28;20056;-81
2022/10/20 02:07:47;;;;;;;13.73;6.85;;;;;;;;;;5098437;28;20056;-81
2022/10/20 02:10:21;;;;;;;15.40;7.47;;;;;;;;;;5100343;28;20810;-81
2022/10/20 02:12:51;;;;;;;15.63;6.57;;;;;;;;;;5104915;27;20580;-81
2022/10/20 02:15:19;;;;;;;14.20;6.80;;;;;;;;;;5105048;28;20533;-81
2022/10/20 02:17:47;;;;;;;10.43;6.38;;;;;;;;;;5102280;27;20053;-81
2022/10/20 02:20:14;;;;;;;19.17;6.57;;;;;;;;;;5110132;27;20127;-81
2022/10/20 02:22:40;;;;;;;12.52;6.18;;;;;;;;;;5097079;28;20056;-84
2022/10/20 02:25:11;;;;;;;10.75;6.22;;;;;;;;;;5111278;27;20056;-83
2022/10/20 02:27:38;;;;;;;12.98;6.63;;;;;;;;;;5099202;27;20110;-83
2022/10/20 02:30:06;;;;;;;12.75;6.78;;;;;;;;;;5110590;27;20053;-83
2022/10/20 02:32:34;;;;;;;12.45;6.53;;;;;;;;;;5099045;28;20052;-81
2022/10/20 02:35:04;;;;;;;13.65;6.88;;;;;;;;;;5101556;28;20098;-81
2022/10/20 02:37:32;;;;;;;13.52;7.15;;;;;;;;;;5101238;27;20028;-82
2022/10/20 02:39:59;;;;;;;13.82;6.85;;;;;;;;;;5096592;28;20422;-81
2022/10/20 02:42:25;;;;;;;17.02;7.25;;;;;;;;;;5113074;27;20055;-81
2022/10/20 02:44:51;;;;;;;17.70;7.20;;;;;;;;;;5107876;27;20047;-81
2022/10/20 02:47:19;;;;;;;14.20;7.50;;;;;;;;;;5103868;27;20056;-80
2022/10/20 02:49:46;;;;;;;18.50;7.55;;;;;;;;;;5104911;27;20099;-83
2022/10/20 02:52:12;;;;;;;11.70;6.80;;;;;;;;;;5105995;28;20048;-82
2022/10/20 02:54:38;;;;;;;13.32;6.90;;;;;;;;;;5098484;28;20052;-84
2022/10/20 02:57:05;;;;;;;15.27;7.05;;;;;;;;;;5113160;27;20048;-84
2022/10/20 02:59:32;;;;;;;13.25;6.47;;;;;;;;;;5109765;28;20056;-81
2022/10/20 03:01:58;;;;;;;16.90;7.53;;;;;;;;;;5108540;27;20055;-80
2022/10/20 03:04:24;;;;;;;16.42;7.82;;;;;;;;;;5103609;27;20958;-80
2022/10/20 03:06:51;;;;;;;14.35;7.07;;;;;;;;;;5102012;28;20055;-80
2022/10/20 03:09:17;;;;;;;17.25;7.25;;;;;;;;;;5103551;28;20068;-81
2022/10/20 03:11:43;;;;;;;18.05;7.20;;;;;;;;;;5093621;28;20052;-84
2022/10/20 03:14:10;;;;;;;13.45;7.38;;;;;;;;;;5106883;28;20984;-81
2022/10/20 03:16:36;;;;;;;16.98;7.30;;;;;;;;;;5102519;27;20060;-81
2022/10/20 03:19:02;;;;;;;18.33;7.50;;;;;;;;;;5099826;28;20040;-80
2022/10/20 03:21:32;;;;;;;17.30;8.05;;;;;;;;;;5097196;27;20074;-81
2022/10/20 03:23:58;;;;;;;17.55;7.90;;;;;;;;;;5090676;28;20040;-81
2022/10/20 03:26:25;;;;;;;14.75;7.78;;;;;;;;;;5091691;27;20053;-81
2022/10/20 03:28:51;;;;;;;15.52;7.15;;;;;;;;;;5101345;28;20477;-81
2022/10/20 03:31:17;;;;;;;16.88;7.38;;;;;;;;;;5102208;28;20059;-81
2022/10/20 03:33:43;;;;;;;16.83;8.52;;;;;;;;;;5111607;28;20060;-81
2022/10/20 03:36:10;;;;;;;14.93;7.90;;;;;;;;;;5090697;28;20549;-82
2022/10/20 03:38:36;;;;;;;16.70;7.53;;;;;;;;;;5095442;27;20692;-81
2022/10/20 03:41:02;;;;;;;18.52;7.93;;;;;;;;;;5100750;28;20085;-83
2022/10/20 03:43:29;;;;;;;16.45;7.35;;;;;;;;;;5094096;28;20076;-82
2022/10/20 03:46:02;;;;;;;20.38;8.13;;;;;;;;;;5108196;28;20095;-83
2022/10/20 03:48:29;;;;;;;14.88;7.70;;;;;;;;;;5107331;27;20052;-80
2022/10/20 03:50:55;;;;;;;16.52;7.95;;;;;;;;;;5095149;28;20045;-84
2022/10/20 03:53:21;;;;;;;18.90;7.85;;;;;;;;;;5096905;28;20052;-82
2022/10/20 03:55:48;;;;;;;14.23;7.35;;;;;;;;;;5099334;27;20057;-82
2022/10/20 03:58:14;;;;;;;14.52;6.90;;;;;;;;;;5098418;27;20056;-82
2022/10/20 04:00:40;;;;;;;15.68;7.63;;;;;;;;;;5097294;28;20060;-79
2022/10/20 04:03:06;;;;;;;14.55;7.53;;;;;;;;;;5100491;27;20047;-80
2022/10/20 04:05:33;;;;;;;19.77;7.70;;;;;;;;;;5103561;27;20056;-80
2022/10/20 04:07:59;;;;;;;19.17;8.30;;;;;;;;;;5103685;27;20102;-80
2022/10/20 04:10:25;;;;;;;16.20;7.95;;;;;;;;;;5097128;28;20057;-80
2022/10/20 04:12:52;;;;;;;17.63;7.90;;;;;;;;;;5091564;28;20079;-80
2022/10/20 04:15:18;;;;;;;15.80;7.88;;;;;;;;;;5098678;28;20584;-80
2022/10/20 04:17:44;;;;;;;16.13;7.43;;;;;;;;;;5108031;28;20073;-80
2022/10/20 04:20:10;;;;;;;13.25;7.30;;;;;;;;;;5101719;27;20055;-80
2022/10/20 04:22:37;;;;;;;12.82;6.93;;;;;;;;;;5099718;28;20036;-80
2022/10/20 04:25:04;;;;;;;14.45;7.00;;;;;;;;;;5090868;28;20053;-80
2022/10/20 04:27:30;;;;;;;17.83;7.63;;;;;;;;;;5099207;28;20121;-80
2022/10/20 04:29:56;;;;;;;18.30;8.05;;;;;;;;;;5094127;28;20063;-80
2022/10/20 04:32:23;;;;;;;18.02;8.48;;;;;;;;;;5101495;27;20054;-80
2022/10/20 04:34:49;;;;;;;18.80;8.05;;;;;;;;;;5095895;27;20033;-80
2022/10/20 04:37:15;;;;;;;17.52;8.10;;;;;;;;;;5095167;28;20052;-80
2022/10/20 04:39:42;;;;;;;15.23;8.27;;;;;;;;;;5107194;28;20052;-80
2022/10/20 04:42:08;;;;;;;18.48;7.93;;;;;;;;;;5101285;27;20052;-80
2022/10/20 04:44:34;;;;;;;16.17;8.60;;;;;;;;;;5102559;27;20060;-80
2022/10/20 04:47:00;;;;;;;16.60;8.48;;;;;;;;;;5110901;28;20056;-81
2022/10/20 04:49:27;;;;;;;22.48;9.07;;;;;;;;;;5099753;27;20044;-81
2022/10/20 04:51:53;;;;;;;16.45;8.73;;;;;;;;;;5095263;27;20114;-80
2022/10/20 04:54:26;;;;;;;16.42;8.75;;;;;;;;;;5103139;28;20186;-81
2022/10/20 04:56:52;;;;;;;17.88;8.27;;;;;;;;;;5107055;27;20039;-80
2022/10/20 04:59:18;;;;;;;19.33;8.52;;;;;;;;;;5105658;27;20060;-81
2022/10/20 05:01:45;;;;;;;18.30;8.73;;;;;;;;;;5104204;27;20064;-81
2022/10/20 05:04:11;;;;;;;19.75;8.57;;;;;;;;;;5099315;27;20930;-82
2022/10/20 05:06:38;;;;;;;18.55;9.15;;;;;;;;;;5107250;28;20569;-80
2022/10/20 05:09:05;;;;;;;16.65;9.02;;;;;;;;;;5104821;28;20060;-79
2022/10/20 05:11:33;;;;;;;24.40;10.00;;;;;;;;;;5107475;27;20056;-79
2022/10/20 05:13:59;;;;;;;20.13;8.75;;;;;;;;;;5100620;27;20103;-79
2022/10/20 05:16:26;;;;;;;19.48;8.98;;;;;;;;;;5107654;27;20587;-79
2022/10/20 05:18:52;;;;;;;18.95;9.85;;;;;;;;;;5101343;28;20109;-79
2022/10/20 05:21:20;;;;;;;22.05;9.10;;;;;;;;;;5101677;27;20044;-79
2022/10/20 05:23:47;;;;;;;19.58;9.05;;;;;;;;;;5094138;27;20063;-79
2022/10/20 05:26:16;;;;;;;18.73;9.20;;;;;;;;;;5111846;27;20575;-79
2022/10/20 05:28:47;;;;;;;19.42;9.55;;;;;;;;;;5101800;27;20053;-79
2022/10/20 05:31:13;;;;;;;19.10;9.60;;;;;;;;;;5097593;28;20052;-78
2022/10/20 05:33:43;;;;;;;19.48;10.15;;;;;;;;;;5090811;28;20061;-79
2022/10/20 05:36:10;;;;;;;24.48;9.73;;;;;;;;;;5098893;27;20074;-79
2022/10/20 05:38:36;;;;;;;24.08;9.38;;;;;;;;;;5110390;28;20048;-79
2022/10/20 05:41:07;;;;;;;18.25;9.13;;;;;;;;;;5094194;28;20061;-79
2022/10/20 05:43:33;;;;;;;16.83;9.32;;;;;;;;;;5103913;27;20530;-79
2022/10/20 05:46:00;;;;;;;21.38;9.60;;;;;;;;;;5094181;28;20080;-79
2022/10/20 05:48:26;;;;;;;21.08;9.65;;;;;;;;;;5105665;28;20055;-79
2022/10/20 05:50:52;;;;;;;21.65;9.52;;;;;;;;;;5097873;28;20036;-79
2022/10/20 05:53:18;;;;;;;18.77;9.27;;;;;;;;;;5102311;27;20106;-79
2022/10/20 05:55:45;;;;;;;21.15;9.23;;;;;;;;;;5105838;28;20063;-79
2022/10/20 05:58:11;;;;;;;24.15;10.93;;;;;;;;;;5100808;27;20525;-79
2022/10/20 06:00:41;;;;;;;16.13;9.23;;;;;;;;;;5097330;28;20056;-80
2022/10/20 06:03:07;;;;;;;20.20;9.50;;;;;;;;;;5092773;28;20052;-79
2022/10/20 06:05:33;;;;;;;17.80;9.00;;;;;;;;;;5105035;27;20060;-79
2022/10/20 06:08:00;;;;;;;20.60;9.98;;;;;;;;;;5097288;28;20052;-79
2022/10/20 06:10:26;;;;;;;22.70;9.77;;;;;;;;;;5109261;27;20055;-79
2022/10/20 06:12:52;;;;;;;16.88;8.38;;;;;;;;;;5103138;27;20080;-83
2022/10/20 06:15:18;;;;;;;19.90;8.98;;;;;;;;;;5103676;27;20048;-83
2022/10/20 06:17:45;;;;;;;17.83;9.40;;;;;;;;;;5114594;27;20060;-82
2022/10/20 06:20:11;;;;;;;21.42;10.00;;;;;;;;;;5106496;27;20526;-80
2022/10/20 06:22:37;;;;;;;17.10;8.80;;;;;;;;;;5100057;28;20067;-81
2022/10/20 06:25:05;;;;;;;20.70;9.05;;;;;;;;;;5113731;28;20048;-80
2022/10/20 06:27:31;;;;;;;19.40;9.75;;;;;;;;;;5103554;27;20589;-80
2022/10/20 06:29:57;;;;;;;18.00;9.45;;;;;;;;;;5111559;28;20040;-83
2022/10/20 06:32:23;;;;;;;17.33;9.40;;;;;;;;;;5111625;27;20060;-83
2022/10/20 06:34:50;;;;;;;20.25;10.25;;;;;;;;;;5104124;27;20053;-80
2022/10/20 06:37:16;;;;;;;20.48;9.35;;;;;;;;;;5107042;28;20045;-80
2022/10/20 06:39:42;;;;;;;20.27;9.50;;;;;;;;;;5105885;27;20052;-79
2022/10/20 06:42:08;;;;;;;18.27;9.35;;;;;;;;;;5100641;27;20052;-80
2022/10/20 06:44:37;;;;;;;19.00;9.45;;;;;;;;;;5105537;27;20544;-80
2022/10/20 06:47:08;;;;;;;15.73;8.70;;;;;;;;;;5092891;27;20519;-79
2022/10/20 06:49:35;;;;;;;18.52;9.38;;;;;;;;;;5099032;27;20060;-79
2022/10/20 06:52:01;;;;;;;18.02;9.27;;;;;;;;;;5105205;27;20086;-79
2022/10/20 06:54:27;;;;;;;18.15;9.50;;;;;;;;;;5108394;28;20056;-78
2022/10/20 06:56:54;;;;;;;17.90;9.50;;;;;;;;;;5104691;28;20056;-80
2022/10/20 06:59:20;;;;;;;21.02;9.75;;;;;;;;;;5098862;28;20049;-80
2022/10/20 07:01:46;;;;;;;17.17;9.10;;;;;;;;;;5094614;27;20049;-80
2022/10/20 07:04:14;;;;;;;18.58;8.88;;;;;;;;;;5104842;28;20056;-79
2022/10/20 07:06:41;;;;;;;19.42;10.00;;;;;;;;;;5101612;28;20056;-80
2022/10/20 07:09:11;;;;;;;18.17;9.38;;;;;;;;;;5096716;27;20048;-82
2022/10/20 07:11:37;;;;;;;17.92;8.80;;;;;;;;;;5110779;27;20099;-82
2022/10/20 07:14:04;;;;;;;25.85;9.15;;;;;;;;;;5103567;28;20049;-83
2022/10/20 07:16:31;;;;;;;17.73;8.70;;;;;;;;;;5101442;28;20036;-80
2022/10/20 07:18:58;;;;;;;20.25;9.60;;;;;;;;;;5103679;27;20055;-81
2022/10/20 07:21:29;;;;;;;18.45;9.73;;;;;;;;;;5107512;28;20052;-81
2022/10/20 07:24:03;;;;;;;16.92;8.63;;;;;;;;;;5108134;28;20052;-82
2022/10/20 07:26:30;;;;;;;20.75;9.75;;;;;;;;;;5110303;27;20056;-81
2022/10/20 07:28:57;;;;;;;18.95;9.98;;;;;;;;;;5104518;27;20048;-83
2022/10/20 07:31:25;;;;;;;18.02;9.50;;;;;;;;;;5102368;27;20052;-81
2022/10/20 07:33:51;;;;;;;21.45;9.32;;;;;;;;;;5096715;28;20056;-80
2022/10/20 07:36:39;;;;;;;17.02;8.68;;;;;;;;;;5106136;28;20056;-81
2022/10/20 07:39:05;;;;;;;20.92;9.27;;;;;;;;;;5095961;28;20052;-79
2022/10/20 07:41:32;;;;;;;18.50;8.93;;;;;;;;;;5106807;28;20055;-80
2022/10/20 07:43:58;;;;;;;16.40;9.23;;;;;;;;;;5114151;27;20040;-80
2022/10/20 07:46:25;;;;;;;17.23;8.98;;;;;;;;;;5110720;27;21350;-81
2022/10/20 07:48:51;;;;;;;19.98;9.27;;;;;;;;;;5107613;28;20055;-80
2022/10/20 07:51:20;;;;;;;19.75;9.48;;;;;;;;;;5111264;28;20048;-78
2022/10/20 07:53:47;;;;;;;16.23;9.05;;;;;;;;;;5113114;27;20055;-80
2022/10/20 07:56:14;;;;;;;18.20;9.27;;;;;;;;;;5115192;27;20520;-80
2022/10/20 07:58:41;;;;;;;17.92;9.63;;;;;;;;;;5115057;27;20592;-79
2022/10/20 08:01:07;;;;;;;20.70;9.02;;;;;;;;;;5113240;28;20067;-80
2022/10/20 08:03:33;;;;;;;18.52;9.10;;;;;;;;;;5105050;27;20052;-80
2022/10/20 08:06:00;;;;;;;17.42;9.05;;;;;;;;;;5106821;27;20056;-78
2022/10/20 08:08:27;;;;;;;16.83;8.98;;;;;;;;;;5099800;28;20057;-78
2022/10/20 08:10:53;;;;;;;17.77;8.57;;;;;;;;;;5094939;28;20048;-80
2022/10/20 08:13:20;;;;;;;17.90;9.27;;;;;;;;;;5106946;28;20075;-78
2022/10/20 08:15:47;;;;;;;18.02;8.93;;;;;;;;;;5111878;28;20048;-78
2022/10/20 08:18:14;;;;;;;20.88;9.30;;;;;;;;;;5098760;28;20060;-80
2022/10/20 08:20:48;;;;;;;14.82;9.02;;;;;;;;;;5116650;28;20067;-80
2022/10/20 08:23:14;;;;;;;16.42;8.55;;;;;;;;;;5115926;28;20062;-80
2022/10/20 08:25:41;;;;;;;20.83;8.55;;;;;;;;;;5101250;28;20051;-80
2022/10/20 08:28:07;;;;;;;19.40;9.02;;;;;;;;;;5109119;27;20061;-80
2022/10/20 08:30:34;;;;;;;18.02;9.50;;;;;;;;;;5114367;28;20040;-78
2022/10/20 08:33:00;;;;;;;20.52;8.98;;;;;;;;;;5113859;27;20056;-80
2022/10/20 08:35:26;;;;;;;24.30;9.48;;;;;;;;;;5114149;28;20943;-80
2022/10/20 08:37:53;;;;;;;18.52;8.98;;;;;;;;;;5114109;27;20924;-80
2022/10/20 08:40:21;;;;;;;19.67;8.52;;;;;;;;;;5112717;28;20044;-80
2022/10/20 08:42:48;;;;;;;16.02;8.50;;;;;;;;;;5107083;27;20154;-80
2022/10/20 08:45:16;;;;;;;14.93;8.65;;;;;;;;;;5101156;28;20099;-80
2022/10/20 08:47:43;;;;;;;14.32;8.40;;;;;;;;;;5101513;28;20059;-82
2022/10/20 08:50:11;;;;;;;17.50;8.30;;;;;;;;;;5122234;27;20090;-82
2022/10/20 08:52:40;;;;;;;17.17;8.18;;;;;;;;;;5101206;27;20052;-81
2022/10/20 08:55:06;;;;;;;17.48;8.90;;;;;;;;;;5091996;27;20055;-81
2022/10/20 08:57:33;;;;;;;16.63;8.20;;;;;;;;;;5101561;28;20090;-79
2022/10/20 09:00:14;;;;;;;16.90;8.45;;;;;;;;;;5101794;27;20084;-81
2022/10/20 09:02:40;;;;;;;13.50;8.32;;;;;;;;;;5106046;27;20063;-81
2022/10/20 09:05:07;;;;;;;18.10;8.63;;;;;;;;;;5100239;27;20059;-82
2022/10/20 09:07:34;;;;;;;16.90;8.77;;;;;;;;;;5103550;27;20507;-80
2022/10/20 09:10:16;;;;;;;16.40;8.68;;;;;;;;;;5107577;28;20036;-79
2022/10/20 09:12:45;;;;;;;17.55;8.63;;;;;;;;;;5106195;27;20052;-81
2022/10/20 09:15:12;;;;;;;18.70;8.80;;;;;;;;;;5109758;27;20058;-81
2022/10/20 09:17:44;;;;;;;15.93;8.80;;;;;;;;;;5116449;27;20064;-81
2022/10/20 09:20:17;;;;;;;16.23;8.10;;;;;;;;;;5103575;27;20060;-78
2022/10/20 09:22:45;;;;;;;16.02;8.52;;;;;;;;;;5104998;27;20143;-81
2022/10/20 09:25:14;;;;;;;17.40;9.02;;;;;;;;;;5102025;27;20060;-79
2022/10/20 09:27:41;;;;;;;18.75;9.07;;;;;;;;;;5098415;27;20053;-81
2022/10/20 09:30:16;;;;;;;16.17;9.00;;;;;;;;;;5106916;27;20082;-81
2022/10/20 09:32:43;;;;;;;18.90;9.98;;;;;;;;;;5105630;27;20063;-78
2022/10/20 09:35:23;;;;;;;22.83;13.63;;;;;;;;;;5101429;27;20045;-81
2022/10/20 09:37:51;;;;;;;19.90;9.00;;;;;;;;;;5108817;27;20048;-80
2022/10/20 09:40:18;;;;;;;16.23;9.60;;;;;;;;;;5111054;27;20052;-81
2022/10/20 09:42:54;;;;;;;17.15;9.88;;;;;;;;;;5112892;27;20478;-82
2022/10/20 09:45:27;;;;;;;16.17;9.45;;;;;;;;;;5115850;28;20051;-82
2022/10/20 09:47:57;;;;;;;19.55;10.32;;;;;;;;;;5102975;27;20043;-79
2022/10/20 09:50:45;;;;;;;15.20;8.68;;;;;;;;;;5108410;27;20051;-79
2022/10/20 09:53:17;;;;;;;17.05;9.02;;;;;;;;;;5109501;27;20052;-81
2022/10/20 09:55:45;;;;;;;16.95;8.60;;;;;;;;;;5111952;27;20059;-79
2022/10/20 09:58:20;;;;;;;15.10;9.57;;;;;;;;;;5114401;27;20063;-79
2022/10/20 10:00:53;;;;;;;17.77;9.90;;;;;;;;;;5113457;27;20561;-81
2022/10/20 10:03:21;;;;;;;20.10;8.73;;;;;;;;;;5110582;27;20084;-81
2022/10/20 10:05:57;;;;;;;21.90;9.75;;;;;;;;;;5107332;27;20060;-81
2022/10/20 10:08:29;;;;;;;14.52;9.43;;;;;;;;;;5109129;27;20048;-82
2022/10/20 10:11:03;;;;;;;18.73;9.57;;;;;;;;;;5107457;27;20052;-81
2022/10/20 10:13:30;;;;;;;15.88;8.85;;;;;;;;;;5110702;27;20052;-81
2022/10/20 10:15:58;;;;;;;18.15;10.32;;;;;;;;;;5108099;27;20040;-79
2022/10/20 10:18:24;;;;;;;16.02;9.40;;;;;;;;;;5094915;27;20055;-81
2022/10/20 10:20:58;;;;;;;18.23;10.60;;;;;;;;;;5109458;27;20058;-81
2022/10/20 10:23:25;;;;;;;18.35;9.75;;;;;;;;;;5103145;27;20052;-81
2022/10/20 10:25:52;;;;;;;16.98;10.85;;;;;;;;;;5101957;27;20052;-81
2022/10/20 10:28:18;;;;;;;16.30;10.20;;;;;;;;;;5106343;28;20079;-81
2022/10/20 10:30:45;;;;;;;17.35;9.88;;;;;;;;;;5111465;27;20056;-81
2022/10/20 10:33:25;;;;;;;17.80;10.45;;;;;;;;;;5100656;28;20079;-80
2022/10/20 10:35:52;;;;;;;18.65;9.10;;;;;;;;;;5111933;27;20055;-80
2022/10/20 10:38:19;;;;;;;18.58;10.13;;;;;;;;;;5110948;27;20036;-80
2022/10/20 10:41:04;;;;;;;22.05;10.63;;;;;;;;;;5111373;27;20061;-80
2022/10/20 10:43:42;;;;;;;18.30;9.43;;;;;;;;;;5099576;27;20048;-80
2022/10/20 10:46:25;;;;;;;17.10;9.68;;;;;;;;;;5109738;27;20052;-80
2022/10/20 10:49:10;;;;;;;20.35;10.10;;;;;;;;;;5096461;28;20037;-81
2022/10/20 10:51:49;;;;;;;21.35;11.20;;;;;;;;;;5122305;27;20086;-85
2022/10/20 10:54:24;;;;;;;23.27;12.88;;;;;;;;;;5097244;27;20047;-83
2022/10/20 10:56:53;;;;;;;19.88;10.88;;;;;;;;;;5099339;28;20055;-83
2022/10/20 10:59:23;;;;;;;23.70;11.45;;;;;;;;;;5116137;27;20040;-83
2022/10/20 11:01:57;;;;;;;21.40;10.85;;;;;;;;;;5118332;27;20056;-84
2022/10/20 11:04:42;;;;;;;23.70;10.88;;;;;;;;;;5105618;27;20040;-86
2022/10/20 11:07:11;;;;;;;22.58;11.25;;;;;;;;;;5121436;27;20052;-84
2022/10/20 11:09:52;;;;;;;24.65;11.48;;;;;;;;;;5131690;27;20043;-87
2022/10/20 11:12:39;;;;;;;22.92;11.98;;;;;;;;;;5117391;27;20040;-83
2022/10/20 11:15:23;;;;;;;22.40;11.18;;;;;;;;;;5095179;28;20052;-90
2022/10/20 11:18:01;;;;;;;20.80;11.57;;;;;;;;;;5094881;28;20067;-81
2022/10/20 11:20:40;;;;;;;24.30;12.43;;;;;;;;;;5095493;28;20892;-83
2022/10/20 11:23:21;;;;;;;27.50;13.18;;;;;;;;;;5112505;28;20052;-89
2022/10/20 11:26:20;;;;;;;25.42;13.07;;;;;;;;;;5098525;27;20159;-82
2022/10/20 11:28:53;;;;;;;25.42;12.38;;;;;;;;;;5063653;28;20055;-82
2022/10/20 11:31:31;;;;;;;24.58;12.68;;;;;;;;;;5105150;27;20044;-83
2022/10/20 11:34:10;;;;;;;26.83;13.52;;;;;;;;;;5109480;28;20056;-83
2022/10/20 11:36:42;;;;;;;25.85;14.27;;;;;;;;;;5105477;27;20052;-82
2022/10/20 11:39:24;;;;;;;26.83;14.27;;;;;;;;;;5105215;27;20048;-82
2022/10/20 11:41:53;;;;;;;27.13;14.23;;;;;;;;;;5104554;27;20041;-82
2022/10/20 11:44:38;;;;;;;28.77;14.32;;;;;;;;;;5111351;27;20056;-82
2022/10/20 11:47:06;;;;;;;28.00;14.43;;;;;;;;;;5095495;28;20499;-82
2022/10/20 11:49:33;;;;;;;28.60;15.88;;;;;;;;;;5100231;27;20065;-82
2022/10/20 11:52:06;;;;;;;29.58;15.45;;;;;;;;;;5104275;27;20082;-81
2022/10/20 11:54:51;;;;;;;29.05;15.02;;;;;;;;;;5107527;27;20429;-82
2022/10/20 11:57:32;;;;;;;30.05;15.27;;;;;;;;;;5101115;27;20048;-81
2022/10/20 12:00:18;;;;;;;29.38;15.25;;;;;;;;;;5107887;27;20048;-81
2022/10/20 12:02:54;;;;;;;39.42;18.20;;;;;;;;;;5111797;27;20058;-81
2022/10/20 12:05:29;;;;;;;30.92;16.08;;;;;;;;;;5110455;28;20140;-81
2022/10/20 12:08:17;;;;;;;36.08;18.38;;;;;;;;;;5103508;27;20075;-81
2022/10/20 12:11:02;;;;;;;36.50;17.02;;;;;;;;;;5105922;27;20067;-81
2022/10/20 12:13:50;;;;;;;32.75;15.90;;;;;;;;;;5101747;27;20529;-81
2022/10/20 12:16:35;;;;;;;39.88;18.52;;;;;;;;;;5101407;27;20048;-81
2022/10/20 12:19:13;;;;;;;36.05;16.77;;;;;;;;;;5105974;27;20059;-81
2022/10/20 12:21:52;;;;;;;32.10;16.48;;;;;;;;;;5099784;28;20052;-82
2022/10/20 12:24:34;;;;;;;33.05;15.77;;;;;;;;;;5100478;28;20052;-82
2022/10/20 12:27:09;;;;;;;32.45;16.10;;;;;;;;;;5102445;27;20052;-82
2022/10/20 12:29:36;;;;;;;36.28;16.80;;;;;;;;;;5111641;27;20055;-83
2022/10/20 12:32:22;;;;;;;30.23;15.32;;;;;;;;;;5119404;27;20037;-82
2022/10/20 12:34:50;;;;;;;30.98;15.98;;;;;;;;;;5110760;27;20060;-82
2022/10/20 12:37:17;;;;;;;31.45;16.08;;;;;;;;;;5100720;27;20099;-82
2022/10/20 12:39:45;;;;;;;28.58;15.85;;;;;;;;;;5108797;27;20052;-83
2022/10/20 12:42:23;;;;;;;30.15;15.40;;;;;;;;;;5102928;27;20060;-82
2022/10/20 12:44:50;;;;;;;29.95;15.15;;;;;;;;;;5106311;27;20067;-83
2022/10/20 12:47:24;;;;;;;36.65;17.70;;;;;;;;;;5114036;27;20063;-83
2022/10/20 12:50:01;;;;;;;32.33;17.00;;;;;;;;;;5113076;27;20048;-82
2022/10/20 12:52:31;;;;;;;35.88;15.88;;;;;;;;;;5095693;28;20040;-83
2022/10/20 12:55:04;;;;;;;33.78;18.05;;;;;;;;;;5106542;27;20419;-82
2022/10/20 12:57:43;;;;;;;38.22;18.20;;;;;;;;;;5109575;28;20056;-82
2022/10/20 13:00:20;;;;;;;37.80;17.05;;;;;;;;;;5096610;28;20056;-82
2022/10/20 13:02:50;;;;;;;39.30;17.60;;;;;;;;;;5109668;28;20512;-82
2022/10/20 13:05:16;;;;;;;38.75;17.90;;;;;;;;;;5105340;27;20541;-83
2022/10/20 13:07:46;;;;;;;31.50;16.83;;;;;;;;;;5101790;27;20056;-82
2022/10/20 13:10:25;;;;;;;30.52;14.80;;;;;;;;;;5097784;27;20056;-82
2022/10/20 13:13:00;;;;;;;32.00;16.88;;;;;;;;;;5107894;27;20048;-82
2022/10/20 13:15:27;;;;;;;37.13;18.23;;;;;;;;;;5110348;27;20064;-82
2022/10/20 13:18:01;;;;;;;33.88;16.73;;;;;;;;;;5109606;28;20056;-82
2022/10/20 13:20:35;;;;;;;29.85;15.32;;;;;;;;;;5093638;27;20056;-82
2022/10/20 13:23:02;;;;;;;32.05;15.88;;;;;;;;;;5104187;27;20060;-82
2022/10/20 13:25:36;;;;;;;27.75;16.27;;;;;;;;;;5109003;27;20049;-82
2022/10/20 13:28:04;;;;;;;29.42;15.73;;;;;;;;;;5100573;27;20059;-82
2022/10/20 13:30:31;;;;;;;30.15;16.15;;;;;;;;;;5110364;27;20048;-82
2022/10/20 13:33:16;;;;;;;30.02;16.50;;;;;;;;;;5105714;27;20524;-83
2022/10/20 13:36:10;;;;;;;30.70;14.95;;;;;;;;;;5115977;27;20052;-82
2022/10/20 13:38:36;;;;;;;33.47;15.57;;;;;;;;;;5107586;27;20048;-82
2022/10/20 13:41:11;;;;;;;30.65;16.23;;;;;;;;;;5105453;28;20095;-82
2022/10/20 13:43:45;;;;;;;28.98;14.93;;;;;;;;;;5095886;27;20060;-82
2022/10/20 13:46:17;;;;;;;24.98;14.95;;;;;;;;;;5100647;28;20561;-83
2022/10/20 13:48:53;;;;;;;25.67;15.38;;;;;;;;;;5100990;28;20436;-82
2022/10/20 13:51:31;;;;;;;27.50;16.02;;;;;;;;;;5101549;27;20056;-81
2022/10/20 13:53:59;;;;;;;31.13;18.10;;;;;;;;;;5099552;27;20056;-82
2022/10/20 13:56:26;;;;;;;30.65;18.67;;;;;;;;;;5106371;27;20077;-84
2022/10/20 13:59:02;;;;;;;28.20;15.50;;;;;;;;;;5110979;27;20059;-82
2022/10/20 14:01:33;;;;;;;29.60;16.20;;;;;;;;;;5099830;27;20060;-82
2022/10/20 14:03:59;;;;;;;28.05;15.75;;;;;;;;;;5113384;27;20560;-82
2022/10/20 14:06:25;;;;;;;33.72;17.00;;;;;;;;;;5105779;27;21085;-82
2022/10/20 14:08:56;;;;;;;33.67;16.23;;;;;;;;;;5109486;27;20515;-81
2022/10/20 14:11:29;;;;;;;29.30;17.30;;;;;;;;;;5108296;27;20055;-81
2022/10/20 14:13:56;;;;;;;37.20;17.60;;;;;;;;;;5104060;27;20129;-80
2022/10/20 14:16:25;;;;;;;25.63;14.85;;;;;;;;;;5106410;27;20048;-81
2022/10/20 14:18:59;;;;;;;26.50;14.73;;;;;;;;;;5106172;27;20123;-80
2022/10/20 14:21:27;;;;;;;28.02;16.92;;;;;;;;;;5106988;27;20048;-83
2022/10/20 14:23:55;;;;;;;32.85;16.33;;;;;;;;;;5129795;27;20052;-81
2022/10/20 14:26:23;;;;;;;35.63;20.20;;;;;;;;;;5114226;27;20052;-82
2022/10/20 14:28:50;;;;;;;40.33;22.00;;;;;;;;;;5109985;27;20078;-82
2022/10/20 14:31:20;;;;;;;30.38;17.30;;;;;;;;;;5111885;27;20074;-81
2022/10/20 14:34:00;;;;;;;30.25;17.17;;;;;;;;;;5105793;27;20055;-81
2022/10/20 14:36:27;;;;;;;30.55;17.92;;;;;;;;;;5104830;27;20052;-81
2022/10/20 14:38:55;;;;;;;30.08;16.55;;;;;;;;;;5114261;27;20028;-82
2022/10/20 14:41:34;;;;;;;28.85;16.70;;;;;;;;;;5111532;27;20056;-81